Time;durP1;ratioP1;P1;durP2;ratioP2;P2;SDS_P1;SDS_P2;PMS_P1;PMS_P2;Temp;Humidity;BMP_temperature;BMP_pressure;BME280_temperature;BME280_humidity;BME280_pressure;Samples;Min_cycle;Max_cycle;Signal;HPM_P1;HPM_P2
2023/09/06 00:00:29;;;;;;;;;;;;;;;;;;5056604;28;19909;-20
2023/09/06 00:02:55;;;;;;;;;;;;;;;;;;5056237;28;19927;-21
2023/09/06 00:05:21;;;;;;;;;;;;;;;;;;5056424;28;19940;-20
2023/09/06 00:07:47;;;;;;;;;;;;;;;;;;5056350;28;19982;-20
2023/09/06 00:10:14;;;;;;;;;;;;;;;;;;5056286;28;19919;-20
2023/09/06 00:12:40;;;;;;;;;;;;;;;;;;5056233;28;20255;-20
2023/09/06 00:15:06;;;;;;;;;;;;;;;;;;5055195;28;19923;-22
2023/09/06 00:17:37;;;;;;;;;;;;;;;;;;5056176;28;19913;-22
2023/09/06 00:20:09;;;;;;;;;;;;;;;;;;5056066;28;19955;-20
2023/09/06 00:22:35;;;;;;;;;;;;;;;;;;5056273;28;19948;-21
2023/09/06 00:25:01;;;;;;;;;;;;;;;;;;5056050;28;19908;-21
2023/09/06 00:27:27;;;;;;;;;;;;;;;;;;5056021;28;19908;-21
2023/09/06 00:29:53;;;;;;;;;;;;;;;;;;5054943;28;19908;-21
2023/09/06 00:32:19;;;;;;;;;;;;;;;;;;5055863;28;19958;-21
2023/09/06 00:34:46;;;;;;;;;;;;;;;;;;5056087;28;19920;-22
2023/09/06 00:37:13;;;;;;;;;;;;;;;;;;5055721;28;19916;-20
2023/09/06 00:39:39;;;;;;;;;;;;;;;;;;5056036;28;20388;-20
2023/09/06 00:42:05;;;;;;;;;;;;;;;;;;5055837;28;19959;-19
2023/09/06 00:44:31;;;;;;;;;;;;;;;;;;5055825;28;19920;-23
2023/09/06 00:46:59;;;;;;;;;;;;;;;;;;5055634;28;20390;-20
2023/09/06 00:49:25;;;;;;;;;;;;;;;;;;5055622;28;19970;-22
2023/09/06 00:51:51;;;;;;;;;;;;;;;;;;5055703;28;19913;-21
2023/09/06 00:54:17;;;;;;;;;;;;;;;;;;5055491;28;19971;-23
2023/09/06 00:56:43;;;;;;;;;;;;;;;;;;5055425;28;19909;-21
2023/09/06 00:59:12;;;;;;;;;;;;;;;;;;5054959;28;20111;-24
2023/09/06 01:01:38;;;;;;;;;;;;;;;;;;5055581;28;19909;-20
2023/09/06 01:04:04;;;;;;;;;;;;;;;;;;5055031;28;20478;-21
2023/09/06 01:06:30;;;;;;;;;;;;;;;;;;5055272;28;19909;-21
2023/09/06 01:08:56;;;;;;;;;;;;;;;;;;5055469;28;19977;-22
2023/09/06 01:11:22;;;;;;;;;;;;;;;;;;5055203;28;19909;-20
2023/09/06 01:13:48;;;;;;;;;;;;;;;;;;5055061;28;19917;-22
2023/09/06 01:16:14;;;;;;;;;;;;;;;;;;5055380;28;19999;-20
2023/09/06 01:18:40;;;;;;;;;;;;;;;;;;5054940;28;20074;-21
2023/09/06 01:21:06;;;;;;;;;;;;;;;;;;5055253;28;19909;-21
2023/09/06 01:23:32;;;;;;;;;;;;;;;;;;5054935;28;19916;-21
2023/09/06 01:25:58;;;;;;;;;;;;;;;;;;5055008;28;19909;-23
2023/09/06 01:28:27;;;;;;;;;;;;;;;;;;5054903;28;19941;-22
2023/09/06 01:30:53;;;;;;;;;;;;;;;;;;5054817;28;20316;-22
2023/09/06 01:33:19;;;;;;;;;;;;;;;;;;5054722;28;19959;-20
2023/09/06 01:35:45;;;;;;;;;;;;;;;;;;5055049;28;19913;-20
2023/09/06 01:38:11;;;;;;;;;;;;;;;;;;5053674;28;19912;-20
2023/09/06 01:40:37;;;;;;;;;;;;;;;;;;5054707;28;19962;-22
2023/09/06 01:43:03;;;;;;;;;;;;;;;;;;5054908;28;20328;-21
2023/09/06 01:45:29;;;;;;;;;;;;;;;;;;5053604;28;20045;-21
2023/09/06 01:47:55;;;;;;;;;;;;;;;;;;5053625;28;20315;-22
2023/09/06 01:50:21;;;;;;;;;;;;;;;;;;5053598;28;19909;-21
2023/09/06 01:52:47;;;;;;;;;;;;;;;;;;5054481;28;19913;-20
2023/09/06 01:55:13;;;;;;;;;;;;;;;;;;5054795;28;20031;-21
2023/09/06 01:57:39;;;;;;;;;;;;;;;;;;5054699;28;19973;-20
2023/09/06 02:00:27;;;;;;;;;;;;;;;;;;5054321;28;20335;-21
2023/09/06 02:02:53;;;;;;;;;;;;;;;;;;5054195;28;19917;-21
2023/09/06 02:05:19;;;;;;;;;;;;;;;;;;5054561;28;19991;-22
2023/09/06 02:07:45;;;;;;;;;;;;;;;;;;5054483;28;19913;-20
2023/09/06 02:10:10;;;;;;;;;;;;;;;;;;5055669;28;20340;-22
2023/09/06 02:12:36;;;;;;;;;;;;;;;;;;5058680;28;19916;-20
2023/09/06 02:15:04;;;;;;;;;;;;;;;;;;5058455;28;19928;-20
2023/09/06 02:17:30;;;;;;;;;;;;;;;;;;5059119;28;20255;-21
2023/09/06 02:19:56;;;;;;;;;;;;;;;;;;5059199;28;19920;-21
2023/09/06 02:22:22;;;;;;;;;;;;;;;;;;5058451;28;20275;-22
2023/09/06 02:24:48;;;;;;;;;;;;;;;;;;5058317;28;19948;-22
2023/09/06 02:27:14;;;;;;;;;;;;;;;;;;5058553;28;19972;-21
2023/09/06 02:29:40;;;;;;;;;;;;;;;;;;5058165;28;19909;-20
2023/09/06 02:32:06;;;;;;;;;;;;;;;;;;5058355;28;20324;-21
2023/09/06 02:34:31;;;;;;;;;;;;;;;;;;5058118;28;19920;-20
2023/09/06 02:36:57;;;;;;;;;;;;;;;;;;5058328;28;19939;-21
2023/09/06 02:39:25;;;;;;;;;;;;;;;;;;5057978;28;19967;-21
2023/09/06 02:41:51;;;;;;;;;;;;;;;;;;5058033;28;19945;-21
2023/09/06 02:44:17;;;;;;;;;;;;;;;;;;5058282;28;20015;-21
2023/09/06 02:46:43;;;;;;;;;;;;;;;;;;5057994;28;19917;-22
2023/09/06 02:49:12;;;;;;;;;;;;;;;;;;5058203;28;19909;-20
2023/09/06 02:51:38;;;;;;;;;;;;;;;;;;5056885;28;19916;-22
2023/09/06 02:54:04;;;;;;;;;;;;;;;;;;5056726;28;19970;-22
2023/09/06 02:56:30;;;;;;;;;;;;;;;;;;5058038;28;19909;-21
2023/09/06 02:58:59;;;;;;;;;;;;;;;;;;5057650;28;19963;-20
2023/09/06 03:01:25;;;;;;;;;;;;;;;;;;5057646;28;19913;-22
2023/09/06 03:03:53;;;;;;;;;;;;;;;;;;5057346;28;19928;-21
2023/09/06 03:06:19;;;;;;;;;;;;;;;;;;5057858;28;19992;-20
2023/09/06 03:08:45;;;;;;;;;;;;;;;;;;5057576;28;20366;-21
2023/09/06 03:11:14;;;;;;;;;;;;;;;;;;5057707;28;19909;-21
2023/09/06 03:13:40;;;;;;;;;;;;;;;;;;5057394;28;19909;-20
2023/09/06 03:16:06;;;;;;;;;;;;;;;;;;5057681;28;19909;-23
2023/09/06 03:18:33;;;;;;;;;;;;;;;;;;5056249;28;19952;-23
2023/09/06 03:21:04;;;;;;;;;;;;;;;;;;5056204;28;19909;-22
2023/09/06 03:23:32;;;;;;;;;;;;;;;;;;5057451;28;19919;-22
2023/09/06 03:25:58;;;;;;;;;;;;;;;;;;5057404;28;19919;-23
2023/09/06 03:28:25;;;;;;;;;;;;;;;;;;5057414;28;19909;-21
2023/09/06 03:30:52;;;;;;;;;;;;;;;;;;5057097;28;19927;-22
2023/09/06 03:33:17;;;;;;;;;;;;;;;;;;5057030;28;20328;-22
2023/09/06 03:35:48;;;;;;;;;;;;;;;;;;5055948;28;19940;-22
2023/09/06 03:38:15;;;;;;;;;;;;;;;;;;5056811;28;19920;-22
2023/09/06 03:40:42;;;;;;;;;;;;;;;;;;5056908;28;20335;-22
2023/09/06 03:43:26;;;;;;;;;;;;;;;;;;5057050;28;19909;-21
2023/09/06 03:45:54;;;;;;;;;;;;;;;;;;5056975;28;20316;-20
2023/09/06 03:48:22;;;;;;;;;;;;;;;;;;5056578;28;20331;-21
2023/09/06 03:50:48;;;;;;;;;;;;;;;;;;5055620;28;19913;-23
2023/09/06 03:53:14;;;;;;;;;;;;;;;;;;5056697;28;19974;-22
2023/09/06 03:55:43;;;;;;;;;;;;;;;;;;5056409;28;19963;-21
2023/09/06 03:58:10;;;;;;;;;;;;;;;;;;5056452;28;20059;-20
2023/09/06 04:00:39;;;;;;;;;;;;;;;;;;5056413;28;19909;-21
2023/09/06 04:03:07;;;;;;;;;;;;;;;;;;5055032;28;19971;-28
2023/09/06 04:05:33;;;;;;;;;;;;;;;;;;5056297;28;20336;-23
2023/09/06 04:07:59;;;;;;;;;;;;;;;;;;5056401;28;19916;-22
2023/09/06 04:10:27;;;;;;;;;;;;;;;;;;5056202;28;19919;-22
2023/09/06 04:12:53;;;;;;;;;;;;;;;;;;5056146;28;19916;-21
2023/09/06 04:15:22;;;;;;;;;;;;;;;;;;5056216;28;19948;-22
2023/09/06 04:17:49;;;;;;;;;;;;;;;;;;5056137;28;19920;-20
2023/09/06 04:20:19;;;;;;;;;;;;;;;;;;5056469;28;20007;-20
2023/09/06 04:22:45;;;;;;;;;;;;;;;;;;5056053;28;19931;-21
2023/09/06 04:25:11;;;;;;;;;;;;;;;;;;5056045;28;20302;-23
2023/09/06 04:27:39;;;;;;;;;;;;;;;;;;5056180;28;19909;-23
2023/09/06 04:30:05;;;;;;;;;;;;;;;;;;5054949;28;20346;-20
2023/09/06 04:32:31;;;;;;;;;;;;;;;;;;5055541;28;20354;-23
2023/09/06 04:34:58;;;;;;;;;;;;;;;;;;5054655;28;19908;-23
2023/09/06 04:37:24;;;;;;;;;;;;;;;;;;5055642;28;20028;-21
2023/09/06 04:39:53;;;;;;;;;;;;;;;;;;5054724;28;19909;-23
2023/09/06 04:42:19;;;;;;;;;;;;;;;;;;5055850;28;19932;-22
2023/09/06 04:44:45;;;;;;;;;;;;;;;;;;5055880;28;19912;-22
2023/09/06 04:47:14;;;;;;;;;;;;;;;;;;5055678;28;19909;-22
2023/09/06 04:49:45;;;;;;;;;;;;;;;;;;5054495;28;19908;-21
2023/09/06 04:52:11;;;;;;;;;;;;;;;;;;5055342;28;19909;-21
2023/09/06 04:54:37;;;;;;;;;;;;;;;;;;5055348;28;20242;-21
2023/09/06 04:57:03;;;;;;;;;;;;;;;;;;5055143;28;20308;-22
2023/09/06 04:59:33;;;;;;;;;;;;;;;;;;5053783;28;20339;-21
2023/09/06 05:01:59;;;;;;;;;;;;;;;;;;5054966;28;19908;-21
2023/09/06 05:04:25;;;;;;;;;;;;;;;;;;5054735;28;19925;-22
2023/09/06 05:06:51;;;;;;;;;;;;;;;;;;5055292;28;19912;-20
2023/09/06 05:09:19;;;;;;;;;;;;;;;;;;5054985;28;19946;-21
2023/09/06 05:11:45;;;;;;;;;;;;;;;;;;5054904;28;20372;-20
2023/09/06 05:14:11;;;;;;;;;;;;;;;;;;5054890;28;19908;-21
2023/09/06 05:16:37;;;;;;;;;;;;;;;;;;5055135;28;19951;-22
2023/09/06 05:19:03;;;;;;;;;;;;;;;;;;5054721;28;19913;-21
2023/09/06 05:21:29;;;;;;;;;;;;;;;;;;5054775;28;19916;-22
2023/09/06 05:23:55;;;;;;;;;;;;;;;;;;5054822;28;20054;-21
2023/09/06 05:26:21;;;;;;;;;;;;;;;;;;5054806;28;19970;-20
2023/09/06 05:28:48;;;;;;;;;;;;;;;;;;5054615;28;19920;-21
2023/09/06 05:31:14;;;;;;;;;;;;;;;;;;5054694;28;20221;-21
2023/09/06 05:33:40;;;;;;;;;;;;;;;;;;5054478;28;19909;-21
2023/09/06 05:36:08;;;;;;;;;;;;;;;;;;5054262;28;19908;-20
2023/09/06 05:38:34;;;;;;;;;;;;;;;;;;5054654;28;20259;-20
2023/09/06 05:41:00;;;;;;;;;;;;;;;;;;5054564;28;19908;-22
2023/09/06 05:43:26;;;;;;;;;;;;;;;;;;5054072;28;19908;-21
2023/09/06 05:45:53;;;;;;;;;;;;;;;;;;5053037;28;20054;-20
2023/09/06 05:48:19;;;;;;;;;;;;;;;;;;5052909;28;19920;-19
2023/09/06 05:50:45;;;;;;;;;;;;;;;;;;5054658;28;19912;-21
2023/09/06 05:53:11;;;;;;;;;;;;;;;;;;5052902;28;20006;-21
2023/09/06 05:55:37;;;;;;;;;;;;;;;;;;5054239;28;19912;-21
2023/09/06 05:58:02;;;;;;;;;;;;;;;;;;5053839;28;20410;-22
2023/09/06 06:00:29;;;;;;;;;;;;;;;;;;5053932;28;20004;-22
2023/09/06 06:02:57;;;;;;;;;;;;;;;;;;5053539;28;20259;-23
2023/09/06 06:05:24;;;;;;;;;;;;;;;;;;5054160;28;19999;-23
2023/09/06 06:07:50;;;;;;;;;;;;;;;;;;5053478;28;19913;-20
2023/09/06 06:10:16;;;;;;;;;;;;;;;;;;5054095;28;19931;-21
2023/09/06 06:12:42;;;;;;;;;;;;;;;;;;5053518;28;19908;-21
2023/09/06 06:15:14;;;;;;;;;;;;;;;;;;5052065;28;20008;-21
2023/09/06 06:17:40;;;;;;;;;;;;;;;;;;5053284;28;20063;-22
2023/09/06 06:20:06;;;;;;;;;;;;;;;;;;5053377;28;20320;-23
2023/09/06 06:22:37;;;;;;;;;;;;;;;;;;5052978;28;19919;-21
2023/09/06 06:25:03;;;;;;;;;;;;;;;;;;5053114;28;19912;-20
2023/09/06 06:27:29;;;;;;;;;;;;;;;;;;5053051;28;20034;-24
2023/09/06 06:29:55;;;;;;;;;;;;;;;;;;5052419;28;19936;-20
2023/09/06 06:32:21;;;;;;;;;;;;;;;;;;5051809;28;20387;-20
2023/09/06 06:34:49;;;;;;;;;;;;;;;;;;5053302;28;19913;-22
2023/09/06 06:37:15;;;;;;;;;;;;;;;;;;5051797;28;19913;-21
2023/09/06 06:39:41;;;;;;;;;;;;;;;;;;5053722;28;19909;-20
2023/09/06 06:42:07;;;;;;;;;;;;;;;;;;5053659;28;19908;-20
2023/09/06 06:44:33;;;;;;;;;;;;;;;;;;5053814;28;19909;-23
2023/09/06 06:46:59;;;;;;;;;;;;;;;;;;5053779;28;20224;-22
2023/09/06 06:49:25;;;;;;;;;;;;;;;;;;5053526;28;19913;-29
2023/09/06 06:51:51;;;;;;;;;;;;;;;;;;5053974;28;19976;-21
2023/09/06 06:54:18;;;;;;;;;;;;;;;;;;5053989;28;19909;-21
2023/09/06 06:56:44;;;;;;;;;;;;;;;;;;5055633;28;20342;-21
2023/09/06 06:59:10;;;;;;;;;;;;;;;;;;5056112;28;19912;-20
2023/09/06 07:01:36;;;;;;;;;;;;;;;;;;5056975;28;19920;-21
2023/09/06 07:04:05;;;;;;;;;;;;;;;;;;5056622;28;19925;-21
2023/09/06 07:06:31;;;;;;;;;;;;;;;;;;5056047;28;19909;-21
2023/09/06 07:08:58;;;;;;;;;;;;;;;;;;5056944;28;20004;-20
2023/09/06 07:11:24;;;;;;;;;;;;;;;;;;5056736;28;19920;-20
2023/09/06 07:13:50;;;;;;;;;;;;;;;;;;5056722;28;19909;-21
2023/09/06 07:16:16;;;;;;;;;;;;;;;;;;5056674;28;19909;-20
2023/09/06 07:18:42;;;;;;;;;;;;;;;;;;5056706;28;19940;-23
2023/09/06 07:21:08;;;;;;;;;;;;;;;;;;5056935;28;19909;-23
2023/09/06 07:23:34;;;;;;;;;;;;;;;;;;5056613;28;20338;-20
2023/09/06 07:25:59;;;;;;;;;;;;;;;;;;5056903;28;20327;-20
2023/09/06 07:28:31;;;;;;;;;;;;;;;;;;5056927;28;20248;-20
2023/09/06 07:30:57;;;;;;;;;;;;;;;;;;5057092;28;20294;-20
2023/09/06 07:33:23;;;;;;;;;;;;;;;;;;5056959;28;19958;-21
2023/09/06 07:35:49;;;;;;;;;;;;;;;;;;5056819;28;19913;-21
2023/09/06 07:38:15;;;;;;;;;;;;;;;;;;5056632;28;19924;-21
2023/09/06 07:40:41;;;;;;;;;;;;;;;;;;5056789;28;19916;-21
2023/09/06 07:43:07;;;;;;;;;;;;;;;;;;5056383;28;19934;-20
2023/09/06 07:45:33;;;;;;;;;;;;;;;;;;5056492;28;20209;-21
2023/09/06 07:48:01;;;;;;;;;;;;;;;;;;5056592;28;19959;-20
2023/09/06 07:50:27;;;;;;;;;;;;;;;;;;5056418;28;19998;-20
2023/09/06 07:52:52;;;;;;;;;;;;;;;;;;5056118;28;19909;-20
2023/09/06 07:55:18;;;;;;;;;;;;;;;;;;5056323;28;19916;-22
2023/09/06 07:57:44;;;;;;;;;;;;;;;;;;5055287;28;19916;-20
2023/09/06 08:00:11;;;;;;;;;;;;;;;;;;5056218;28;19952;-21
2023/09/06 08:02:37;;;;;;;;;;;;;;;;;;5056016;28;19986;-22
2023/09/06 08:05:04;;;;;;;;;;;;;;;;;;5055717;28;19921;-20
2023/09/06 08:07:30;;;;;;;;;;;;;;;;;;5055065;28;20201;-20
2023/09/06 08:09:56;;;;;;;;;;;;;;;;;;5056206;28;19908;-21
2023/09/06 08:12:23;;;;;;;;;;;;;;;;;;5055829;28;19909;-20
2023/09/06 08:14:48;;;;;;;;;;;;;;;;;;5055865;28;19916;-20
2023/09/06 08:17:14;;;;;;;;;;;;;;;;;;5055855;28;19913;-21
2023/09/06 08:19:40;;;;;;;;;;;;;;;;;;5054748;28;19909;-21
2023/09/06 08:22:06;;;;;;;;;;;;;;;;;;5055642;28;20350;-20
2023/09/06 08:24:33;;;;;;;;;;;;;;;;;;5055575;28;19912;-22
2023/09/06 08:26:59;;;;;;;;;;;;;;;;;;5055560;28;19944;-20
2023/09/06 08:29:24;;;;;;;;;;;;;;;;;;5055608;28;19967;-21
2023/09/06 08:31:50;;;;;;;;;;;;;;;;;;5056064;28;19909;-20
2023/09/06 08:34:16;;;;;;;;;;;;;;;;;;5055573;28;19909;-22
2023/09/06 08:36:42;;;;;;;;;;;;;;;;;;5054367;28;19908;-21
2023/09/06 08:39:08;;;;;;;;;;;;;;;;;;5055467;28;19919;-21
2023/09/06 08:41:34;;;;;;;;;;;;;;;;;;5055052;28;20007;-21
2023/09/06 08:44:00;;;;;;;;;;;;;;;;;;5055003;28;19908;-21
2023/09/06 08:46:26;;;;;;;;;;;;;;;;;;5054924;28;19909;-20
2023/09/06 08:48:52;;;;;;;;;;;;;;;;;;5054908;28;19915;-21
2023/09/06 08:51:18;;;;;;;;;;;;;;;;;;5054716;28;19909;-20
2023/09/06 08:53:44;;;;;;;;;;;;;;;;;;5054635;28;19909;-22
2023/09/06 08:56:10;;;;;;;;;;;;;;;;;;5054617;28;19936;-22
2023/09/06 08:58:36;;;;;;;;;;;;;;;;;;5054750;28;20007;-20
2023/09/06 09:01:03;;;;;;;;;;;;;;;;;;5054740;28;20339;-20
2023/09/06 09:03:29;;;;;;;;;;;;;;;;;;5053063;28;20007;-21
2023/09/06 09:05:55;;;;;;;;;;;;;;;;;;5054370;28;20326;-20
2023/09/06 09:08:21;;;;;;;;;;;;;;;;;;5053195;28;19909;-22
2023/09/06 09:10:47;;;;;;;;;;;;;;;;;;5053106;28;19913;-23
2023/09/06 09:13:13;;;;;;;;;;;;;;;;;;5054169;28;20336;-19
2023/09/06 09:15:39;;;;;;;;;;;;;;;;;;5054357;28;20225;-22
2023/09/06 09:18:05;;;;;;;;;;;;;;;;;;5054013;28;19928;-22
2023/09/06 09:20:31;;;;;;;;;;;;;;;;;;5054001;28;20390;-20
2023/09/06 09:22:57;;;;;;;;;;;;;;;;;;5053885;28;20359;-20
2023/09/06 09:25:23;;;;;;;;;;;;;;;;;;5053616;28;19992;-20
2023/09/06 09:27:51;;;;;;;;;;;;;;;;;;5054843;28;19909;-23
2023/09/06 09:30:18;;;;;;;;;;;;;;;;;;5054623;28;20039;-22
2023/09/06 09:32:44;;;;;;;;;;;;;;;;;;5054430;28;20212;-21
2023/09/06 09:35:10;;;;;;;;;;;;;;;;;;5054718;28;19920;-20
2023/09/06 09:37:36;;;;;;;;;;;;;;;;;;5054507;28;19928;-21
2023/09/06 09:40:05;;;;;;;;;;;;;;;;;;5053469;28;20291;-20
2023/09/06 09:42:34;;;;;;;;;;;;;;;;;;5054747;28;19920;-23
2023/09/06 09:45:00;;;;;;;;;;;;;;;;;;5053338;28;20252;-22
2023/09/06 09:47:26;;;;;;;;;;;;;;;;;;5054366;28;20312;-21
2023/09/06 09:49:52;;;;;;;;;;;;;;;;;;5054291;28;19909;-22
2023/09/06 09:52:18;;;;;;;;;;;;;;;;;;5053282;28;19963;-20
2023/09/06 09:54:47;;;;;;;;;;;;;;;;;;5054362;28;19991;-22
2023/09/06 09:57:13;;;;;;;;;;;;;;;;;;5054320;28;19955;-20
2023/09/06 09:59:40;;;;;;;;;;;;;;;;;;5054245;28;20351;-20
2023/09/06 10:02:06;;;;;;;;;;;;;;;;;;5053997;28;19913;-20
2023/09/06 10:04:32;;;;;;;;;;;;;;;;;;5052903;28;19982;-20
2023/09/06 10:06:58;;;;;;;;;;;;;;;;;;5054360;28;20000;-21
2023/09/06 10:09:24;;;;;;;;;;;;;;;;;;5054367;28;19919;-20
2023/09/06 10:11:52;;;;;;;;;;;;;;;;;;5053326;28;20454;-20
2023/09/06 10:14:19;;;;;;;;;;;;;;;;;;5054072;28;20237;-21
2023/09/06 10:16:45;;;;;;;;;;;;;;;;;;5053839;28;19936;-22
2023/09/06 10:19:11;;;;;;;;;;;;;;;;;;5052974;28;19913;-21
2023/09/06 10:21:37;;;;;;;;;;;;;;;;;;5053332;28;19916;-23
2023/09/06 10:24:03;;;;;;;;;;;;;;;;;;5052987;28;19909;-21
2023/09/06 10:26:29;;;;;;;;;;;;;;;;;;5054447;28;19908;-20
2023/09/06 10:28:55;;;;;;;;;;;;;;;;;;5052753;28;19977;-21
2023/09/06 10:31:21;;;;;;;;;;;;;;;;;;5055605;28;19954;-20
2023/09/06 10:33:48;;;;;;;;;;;;;;;;;;5057703;28;19957;-19
2023/09/06 10:36:14;;;;;;;;;;;;;;;;;;5057926;28;19909;-22
2023/09/06 10:38:40;;;;;;;;;;;;;;;;;;5057855;28;20335;-21
2023/09/06 10:41:07;;;;;;;;;;;;;;;;;;5057643;28;20362;-21
2023/09/06 10:43:33;;;;;;;;;;;;;;;;;;5056508;28;19915;-21
2023/09/06 10:45:59;;;;;;;;;;;;;;;;;;5057559;28;19995;-21
2023/09/06 10:48:25;;;;;;;;;;;;;;;;;;5057712;28;19913;-33
2023/09/06 10:50:50;;;;;;;;;;;;;;;;;;5056480;28;19908;-20
2023/09/06 10:53:16;;;;;;;;;;;;;;;;;;5057317;28;20250;-24
2023/09/06 10:55:42;;;;;;;;;;;;;;;;;;5057328;28;19967;-22
2023/09/06 10:58:08;;;;;;;;;;;;;;;;;;5055798;28;19913;-21
2023/09/06 11:00:34;;;;;;;;;;;;;;;;;;5055632;28;19970;-22
2023/09/06 11:03:00;;;;;;;;;;;;;;;;;;5056520;28;19909;-20
2023/09/06 11:05:27;;;;;;;;;;;;;;;;;;5056857;28;19912;-20
2023/09/06 11:07:53;;;;;;;;;;;;;;;;;;5056641;28;20251;-21
2023/09/06 11:10:19;;;;;;;;;;;;;;;;;;5055558;28;19909;-20
2023/09/06 11:12:45;;;;;;;;;;;;;;;;;;5056503;28;20297;-23
2023/09/06 11:15:11;;;;;;;;;;;;;;;;;;5056645;28;19959;-21
2023/09/06 11:17:37;;;;;;;;;;;;;;;;;;5055294;28;19920;-23
2023/09/06 11:20:09;;;;;;;;;;;;;;;;;;5055349;28;20276;-20
2023/09/06 11:22:35;;;;;;;;;;;;;;;;;;5056554;28;19923;-21
2023/09/06 11:25:02;;;;;;;;;;;;;;;;;;5056800;28;20406;-21
2023/09/06 11:27:33;;;;;;;;;;;;;;;;;;5057008;28;19927;-21
2023/09/06 11:30:00;;;;;;;;;;;;;;;;;;5055992;28;19909;-20
2023/09/06 11:32:29;;;;;;;;;;;;;;;;;;5056949;28;20007;-21
2023/09/06 11:34:55;;;;;;;;;;;;;;;;;;5055761;28;19933;-21
2023/09/06 11:37:21;;;;;;;;;;;;;;;;;;5056993;28;20364;-21
2023/09/06 11:39:47;;;;;;;;;;;;;;;;;;5055795;28;19917;-21
2023/09/06 11:42:14;;;;;;;;;;;;;;;;;;5056015;28;19974;-27
2023/09/06 11:44:45;;;;;;;;;;;;;;;;;;5056390;28;19909;-21
2023/09/06 11:47:11;;;;;;;;;;;;;;;;;;5056802;28;19944;-22
2023/09/06 11:49:40;;;;;;;;;;;;;;;;;;5056663;28;19974;-22
2023/09/06 11:52:06;;;;;;;;;;;;;;;;;;5056321;28;19919;-21
2023/09/06 11:54:32;;;;;;;;;;;;;;;;;;5056302;28;19999;-20
2023/09/06 11:56:58;;;;;;;;;;;;;;;;;;5056563;28;20387;-30
2023/09/06 11:59:24;;;;;;;;;;;;;;;;;;5056207;28;20000;-21
2023/09/06 12:01:52;;;;;;;;;;;;;;;;;;5055146;28;19951;-21
2023/09/06 12:04:20;;;;;;;;;;;;;;;;;;5056175;28;19920;-21
2023/09/06 12:06:48;;;;;;;;;;;;;;;;;;5056263;28;19916;-22
2023/09/06 12:09:18;;;;;;;;;;;;;;;;;;5056992;28;19919;-21
2023/09/06 12:11:44;;;;;;;;;;;;;;;;;;5055962;28;19908;-20
2023/09/06 12:14:13;;;;;;;;;;;;;;;;;;5054802;28;19974;-21
2023/09/06 12:16:39;;;;;;;;;;;;;;;;;;5056379;28;19908;-23
2023/09/06 12:19:05;;;;;;;;;;;;;;;;;;5056217;28;19916;-22
2023/09/06 12:21:31;;;;;;;;;;;;;;;;;;5056014;28;19909;-22
2023/09/06 12:23:58;;;;;;;;;;;;;;;;;;5055813;28;20365;-21
2023/09/06 12:26:24;;;;;;;;;;;;;;;;;;5054829;28;20019;-22
2023/09/06 12:28:50;;;;;;;;;;;;;;;;;;5056020;28;19956;-22
2023/09/06 12:31:16;;;;;;;;;;;;;;;;;;5056334;28;19920;-21
2023/09/06 12:33:44;;;;;;;;;;;;;;;;;;5055521;28;19944;-21
2023/09/06 12:36:11;;;;;;;;;;;;;;;;;;5055625;28;19943;-21
2023/09/06 12:38:37;;;;;;;;;;;;;;;;;;5055542;28;19962;-22
2023/09/06 12:41:04;;;;;;;;;;;;;;;;;;5054384;28;19916;-21
2023/09/06 12:43:35;;;;;;;;;;;;;;;;;;5055386;28;19919;-22
2023/09/06 12:46:00;;;;;;;;;;;;;;;;;;5055633;28;19909;-21
2023/09/06 12:48:26;;;;;;;;;;;;;;;;;;5055127;28;19909;-21
2023/09/06 12:50:52;;;;;;;;;;;;;;;;;;5055299;28;19917;-20
2023/09/06 12:53:18;;;;;;;;;;;;;;;;;;5053674;28;20359;-20
2023/09/06 12:55:44;;;;;;;;;;;;;;;;;;5054984;28;20001;-22
2023/09/06 12:58:10;;;;;;;;;;;;;;;;;;5054253;28;19920;-22
2023/09/06 13:00:36;;;;;;;;;;;;;;;;;;5055071;28;19948;-20
2023/09/06 13:03:03;;;;;;;;;;;;;;;;;;5054809;28;19919;-21
2023/09/06 13:05:30;;;;;;;;;;;;;;;;;;5055547;28;19913;-20
2023/09/06 13:07:56;;;;;;;;;;;;;;;;;;5055173;28;19909;-21
2023/09/06 13:10:22;;;;;;;;;;;;;;;;;;5055304;28;19978;-22
2023/09/06 13:12:48;;;;;;;;;;;;;;;;;;5054092;28;19919;-22
2023/09/06 13:15:14;;;;;;;;;;;;;;;;;;5054160;28;19909;-22
2023/09/06 13:17:40;;;;;;;;;;;;;;;;;;5055070;28;19908;-21
2023/09/06 13:20:12;;;;;;;;;;;;;;;;;;5055126;28;20000;-21
2023/09/06 13:22:38;;;;;;;;;;;;;;;;;;5055022;28;20004;-21
2023/09/06 13:25:06;;;;;;;;;;;;;;;;;;5055047;28;19944;-22
2023/09/06 13:27:32;;;;;;;;;;;;;;;;;;5054985;28;19909;-22
2023/09/06 13:29:58;;;;;;;;;;;;;;;;;;5054939;28;20027;-21
2023/09/06 13:32:25;;;;;;;;;;;;;;;;;;5054431;28;20308;-21
2023/09/06 13:34:52;;;;;;;;;;;;;;;;;;5054401;28;19962;-21
2023/09/06 13:37:18;;;;;;;;;;;;;;;;;;5054523;28;19931;-21
2023/09/06 13:39:44;;;;;;;;;;;;;;;;;;5054715;28;19912;-22
2023/09/06 13:42:11;;;;;;;;;;;;;;;;;;5054890;28;19909;-21
2023/09/06 13:44:37;;;;;;;;;;;;;;;;;;5054446;28;19920;-20
2023/09/06 13:47:04;;;;;;;;;;;;;;;;;;5054281;28;19929;-19
2023/09/06 13:49:30;;;;;;;;;;;;;;;;;;5053056;28;20007;-22
2023/09/06 13:51:56;;;;;;;;;;;;;;;;;;5054565;28;19951;-20
2023/09/06 13:54:22;;;;;;;;;;;;;;;;;;5054241;28;19909;-20
2023/09/06 13:56:49;;;;;;;;;;;;;;;;;;5053503;28;19913;-20
2023/09/06 13:59:15;;;;;;;;;;;;;;;;;;5054354;28;20004;-20
2023/09/06 14:01:42;;;;;;;;;;;;;;;;;;5054378;28;19967;-20
2023/09/06 14:04:08;;;;;;;;;;;;;;;;;;5053797;28;19920;-22
2023/09/06 14:06:34;;;;;;;;;;;;;;;;;;5053345;28;19912;-20
2023/09/06 14:09:00;;;;;;;;;;;;;;;;;;5053096;28;19913;-22
2023/09/06 14:11:26;;;;;;;;;;;;;;;;;;5053729;28;19909;-21
2023/09/06 14:13:53;;;;;;;;;;;;;;;;;;5052630;28;19908;-24
2023/09/06 14:16:20;;;;;;;;;;;;;;;;;;5054119;28;20003;-21
2023/09/06 14:18:46;;;;;;;;;;;;;;;;;;5054169;28;20012;-23
2023/09/06 14:21:20;;;;;;;;;;;;;;;;;;5054069;28;20319;-23
2023/09/06 14:23:46;;;;;;;;;;;;;;;;;;5053780;28;19974;-20
2023/09/06 14:26:12;;;;;;;;;;;;;;;;;;5053707;28;20316;-21
2023/09/06 14:28:37;;;;;;;;;;;;;;;;;;5054143;28;19909;-21
2023/09/06 14:31:03;;;;;;;;;;;;;;;;;;5052933;28;19915;-20
2023/09/06 14:33:29;;;;;;;;;;;;;;;;;;5053778;28;19908;-23
2023/09/06 14:35:55;;;;;;;;;;;;;;;;;;5054005;28;19974;-20
2023/09/06 14:38:21;;;;;;;;;;;;;;;;;;5053868;28;19981;-21
2023/09/06 14:40:47;;;;;;;;;;;;;;;;;;5054297;28;20007;-21
2023/09/06 14:43:13;;;;;;;;;;;;;;;;;;5053013;28;19944;-20
2023/09/06 14:45:39;;;;;;;;;;;;;;;;;;5053659;28;20342;-21
2023/09/06 14:48:05;;;;;;;;;;;;;;;;;;5053655;28;19956;-20
2023/09/06 14:50:31;;;;;;;;;;;;;;;;;;5052657;28;19922;-20
2023/09/06 14:52:57;;;;;;;;;;;;;;;;;;5053752;28;19991;-21
2023/09/06 14:55:23;;;;;;;;;;;;;;;;;;5053696;28;20236;-20
2023/09/06 14:57:49;;;;;;;;;;;;;;;;;;5053974;28;20281;-22
2023/09/06 15:00:15;;;;;;;;;;;;;;;;;;5053836;28;19923;-22
2023/09/06 15:02:41;;;;;;;;;;;;;;;;;;5053842;28;19948;-22
2023/09/06 15:05:07;;;;;;;;;;;;;;;;;;5053865;28;20359;-22
2023/09/06 15:07:33;;;;;;;;;;;;;;;;;;5053806;28;19976;-20
2023/09/06 15:09:59;;;;;;;;;;;;;;;;;;5052367;28;19959;-20
2023/09/06 15:12:25;;;;;;;;;;;;;;;;;;5053230;28;19923;-20
2023/09/06 15:14:53;;;;;;;;;;;;;;;;;;5051562;28;20314;-21
2023/09/06 15:17:19;;;;;;;;;;;;;;;;;;5052782;28;20418;-22
2023/09/06 15:19:45;;;;;;;;;;;;;;;;;;5056245;28;20146;-22
2023/09/06 15:22:11;;;;;;;;;;;;;;;;;;5055056;28;19909;-23
2023/09/06 15:24:37;;;;;;;;;;;;;;;;;;5056213;28;19916;-21
2023/09/06 15:27:04;;;;;;;;;;;;;;;;;;5055100;28;19909;-23
2023/09/06 15:29:30;;;;;;;;;;;;;;;;;;5056159;28;20339;-21
2023/09/06 15:31:59;;;;;;;;;;;;;;;;;;5054900;28;19916;-23
2023/09/06 15:34:25;;;;;;;;;;;;;;;;;;5056426;28;20330;-20
2023/09/06 15:36:51;;;;;;;;;;;;;;;;;;5056506;28;19913;-20
2023/09/06 15:39:16;;;;;;;;;;;;;;;;;;5056189;28;19912;-22
2023/09/06 15:41:42;;;;;;;;;;;;;;;;;;5056380;28;19984;-21
2023/09/06 15:44:10;;;;;;;;;;;;;;;;;;5056195;28;20016;-23
2023/09/06 15:46:36;;;;;;;;;;;;;;;;;;5056323;28;20027;-22
2023/09/06 15:49:01;;;;;;;;;;;;;;;;;;5055535;28;19920;-23
2023/09/06 15:51:27;;;;;;;;;;;;;;;;;;5055709;28;19909;-22
2023/09/06 15:53:53;;;;;;;;;;;;;;;;;;5056361;28;19909;-23
2023/09/06 15:56:19;;;;;;;;;;;;;;;;;;5055350;28;19931;-21
2023/09/06 15:58:45;;;;;;;;;;;;;;;;;;5055235;28;20007;-21
2023/09/06 16:01:11;;;;;;;;;;;;;;;;;;5056801;28;19908;-22
2023/09/06 16:03:37;;;;;;;;;;;;;;;;;;5055914;28;20427;-21
2023/09/06 16:06:03;;;;;;;;;;;;;;;;;;5056590;28;20366;-23
2023/09/06 16:08:29;;;;;;;;;;;;;;;;;;5056244;28;19985;-21
2023/09/06 16:10:55;;;;;;;;;;;;;;;;;;5055905;28;19913;-22
2023/09/06 16:13:21;;;;;;;;;;;;;;;;;;5054650;28;20000;-21
2023/09/06 16:15:47;;;;;;;;;;;;;;;;;;5056023;28;19913;-21
2023/09/06 16:18:13;;;;;;;;;;;;;;;;;;5054483;28;19913;-23
2023/09/06 16:20:40;;;;;;;;;;;;;;;;;;5054670;28;19909;-21
2023/09/06 16:23:06;;;;;;;;;;;;;;;;;;5055633;28;19920;-22
2023/09/06 16:25:32;;;;;;;;;;;;;;;;;;5055762;28;20259;-21
2023/09/06 16:27:59;;;;;;;;;;;;;;;;;;5055287;28;19959;-22
2023/09/06 16:30:25;;;;;;;;;;;;;;;;;;5054838;28;20004;-23
2023/09/06 16:32:51;;;;;;;;;;;;;;;;;;5055808;28;19921;-21
2023/09/06 16:35:17;;;;;;;;;;;;;;;;;;5055869;28;19909;-22
2023/09/06 16:37:48;;;;;;;;;;;;;;;;;;5055377;28;20252;-20
2023/09/06 16:40:20;;;;;;;;;;;;;;;;;;5055503;28;19912;-21